sensor_id;sensor_type;location;lat;lon;timestamp;temperature;humidity
25825;DHT22;13658;44.534;18.694;2023-06-10T00:01:16;15.80;99.90
25825;DHT22;13658;44.534;18.694;2023-06-10T00:03:43;15.70;99.90
25825;DHT22;13658;44.534;18.694;2023-06-10T00:06:09;15.80;99.90
25825;DHT22;13658;44.534;18.694;2023-06-10T00:08:35;15.70;99.90
25825;DHT22;13658;44.534;18.694;2023-06-10T00:11:03;15.80;99.90
25825;DHT22;13658;44.534;18.694;2023-06-10T00:13:30;15.90;99.90
25825;DHT22;13658;44.534;18.694;2023-06-10T00:15:56;15.90;99.90
25825;DHT22;13658;44.534;18.694;2023-06-10T00:18:22;15.90;99.90
25825;DHT22;13658;44.534;18.694;2023-06-10T00:20:48;15.90;99.90
25825;DHT22;13658;44.534;18.694;2023-06-10T00:23:18;15.90;99.90
25825;DHT22;13658;44.534;18.694;2023-06-10T00:25:44;15.90;99.90
25825;DHT22;13658;44.534;18.694;2023-06-10T00:28:10;15.90;99.90
25825;DHT22;13658;44.534;18.694;2023-06-10T00:30:36;15.90;99.90
25825;DHT22;13658;44.534;18.694;2023-06-10T00:33:02;15.80;99.90
25825;DHT22;13658;44.534;18.694;2023-06-10T00:35:28;15.80;99.90
25825;DHT22;13658;44.534;18.694;2023-06-10T00:37:54;15.70;99.90
25825;DHT22;13658;44.534;18.694;2023-06-10T00:40:20;15.60;99.90
25825;DHT22;13658;44.534;18.694;2023-06-10T00:42:46;15.50;99.90
25825;DHT22;13658;44.534;18.694;2023-06-10T00:45:12;15.40;99.90
25825;DHT22;13658;44.534;18.694;2023-06-10T00:47:39;15.30;99.90
25825;DHT22;13658;44.534;18.694;2023-06-10T00:50:06;15.30;99.90
25825;DHT22;13658;44.534;18.694;2023-06-10T00:52:33;15.30;99.90
25825;DHT22;13658;44.534;18.694;2023-06-10T00:55:01;15.30;99.90
25825;DHT22;13658;44.534;18.694;2023-06-10T00:57:27;15.30;99.90
25825;DHT22;13658;44.534;18.694;2023-06-10T00:59:57;15.40;99.90
25825;DHT22;13658;44.534;18.694;2023-06-10T01:02:23;15.40;99.90
25825;DHT22;13658;44.534;18.694;2023-06-10T01:04:49;15.50;99.90
25825;DHT22;13658;44.534;18.694;2023-06-10T01:07:25;15.40;99.90
25825;DHT22;13658;44.534;18.694;2023-06-10T01:10:09;15.50;99.90
25825;DHT22;13658;44.534;18.694;2023-06-10T01:12:45;15.50;99.90
25825;DHT22;13658;44.534;18.694;2023-06-10T01:15:17;15.50;99.90
25825;DHT22;13658;44.534;18.694;2023-06-10T01:18:04;15.50;99.90
25825;DHT22;13658;44.534;18.694;2023-06-10T01:20:35;15.50;99.90
25825;DHT22;13658;44.534;18.694;2023-06-10T01:23:06;15.50;99.90
25825;DHT22;13658;44.534;18.694;2023-06-10T01:25:33;15.40;99.90
25825;DHT22;13658;44.534;18.694;2023-06-10T01:28:14;15.30;99.90
25825;DHT22;13658;44.534;18.694;2023-06-10T01:30:52;15.30;99.90
25825;DHT22;13658;44.534;18.694;2023-06-10T01:33:31;15.30;99.90
25825;DHT22;13658;44.534;18.694;2023-06-10T01:35:59;15.20;99.90
25825;DHT22;13658;44.534;18.694;2023-06-10T01:38:32;15.10;99.90
25825;DHT22;13658;44.534;18.694;2023-06-10T01:41:00;15.10;99.90
25825;DHT22;13658;44.534;18.694;2023-06-10T01:43:26;14.90;99.90
25825;DHT22;13658;44.534;18.694;2023-06-10T01:45:52;14.90;99.90
25825;DHT22;13658;44.534;18.694;2023-06-10T01:48:18;14.80;99.90
25825;DHT22;13658;44.534;18.694;2023-06-10T01:50:44;14.70;99.90
25825;DHT22;13658;44.534;18.694;2023-06-10T01:53:10;14.80;99.90
25825;DHT22;13658;44.534;18.694;2023-06-10T01:55:36;14.80;99.90
25825;DHT22;13658;44.534;18.694;2023-06-10T01:58:02;14.90;99.90
25825;DHT22;13658;44.534;18.694;2023-06-10T02:00:28;14.90;99.90
25825;DHT22;13658;44.534;18.694;2023-06-10T02:02:54;14.90;99.90
25825;DHT22;13658;44.534;18.694;2023-06-10T02:05:20;14.90;99.90
25825;DHT22;13658;44.534;18.694;2023-06-10T02:07:48;14.80;99.90
25825;DHT22;13658;44.534;18.694;2023-06-10T02:10:14;14.80;99.90
25825;DHT22;13658;44.534;18.694;2023-06-10T02:12:40;14.80;99.90
25825;DHT22;13658;44.534;18.694;2023-06-10T02:15:06;14.80;99.90
25825;DHT22;13658;44.534;18.694;2023-06-10T02:17:32;14.70;99.90
25825;DHT22;13658;44.534;18.694;2023-06-10T02:19:59;14.70;99.90
25825;DHT22;13658;44.534;18.694;2023-06-10T02:22:25;14.70;99.90
25825;DHT22;13658;44.534;18.694;2023-06-10T02:24:51;14.70;99.90
25825;DHT22;13658;44.534;18.694;2023-06-10T02:27:18;14.70;99.90
25825;DHT22;13658;44.534;18.694;2023-06-10T02:29:44;14.60;99.90
25825;DHT22;13658;44.534;18.694;2023-06-10T02:32:11;14.60;99.90
25825;DHT22;13658;44.534;18.694;2023-06-10T02:34:37;14.50;99.90
25825;DHT22;13658;44.534;18.694;2023-06-10T02:37:04;14.60;99.90
25825;DHT22;13658;44.534;18.694;2023-06-10T02:39:30;14.50;99.90
25825;DHT22;13658;44.534;18.694;2023-06-10T02:41:57;14.40;99.90
25825;DHT22;13658;44.534;18.694;2023-06-10T02:44:23;14.40;99.90
25825;DHT22;13658;44.534;18.694;2023-06-10T02:46:49;14.40;99.90
25825;DHT22;13658;44.534;18.694;2023-06-10T02:49:16;14.40;99.90
25825;DHT22;13658;44.534;18.694;2023-06-10T02:51:44;14.50;99.90
25825;DHT22;13658;44.534;18.694;2023-06-10T02:54:10;14.60;99.90
25825;DHT22;13658;44.534;18.694;2023-06-10T02:56:37;14.60;99.90
25825;DHT22;13658;44.534;18.694;2023-06-10T02:59:05;14.60;99.90
25825;DHT22;13658;44.534;18.694;2023-06-10T03:01:33;14.60;99.90
25825;DHT22;13658;44.534;18.694;2023-06-10T03:04:06;14.60;99.90
25825;DHT22;13658;44.534;18.694;2023-06-10T03:06:33;14.60;99.90
25825;DHT22;13658;44.534;18.694;2023-06-10T03:09:10;14.60;99.90
25825;DHT22;13658;44.534;18.694;2023-06-10T03:11:38;14.60;99.90
25825;DHT22;13658;44.534;18.694;2023-06-10T03:14:04;14.60;99.90
25825;DHT22;13658;44.534;18.694;2023-06-10T03:16:31;14.50;99.90
25825;DHT22;13658;44.534;18.694;2023-06-10T03:18:59;14.50;99.90
25825;DHT22;13658;44.534;18.694;2023-06-10T03:21:25;14.50;99.90
25825;DHT22;13658;44.534;18.694;2023-06-10T03:23:54;14.40;99.90
25825;DHT22;13658;44.534;18.694;2023-06-10T03:26:21;14.30;99.90
25825;DHT22;13658;44.534;18.694;2023-06-10T03:28:47;14.30;99.90
25825;DHT22;13658;44.534;18.694;2023-06-10T03:31:15;14.20;99.90
25825;DHT22;13658;44.534;18.694;2023-06-10T03:33:43;14.20;99.90
25825;DHT22;13658;44.534;18.694;2023-06-10T03:36:09;14.20;99.90
25825;DHT22;13658;44.534;18.694;2023-06-10T03:38:36;14.30;99.90
25825;DHT22;13658;44.534;18.694;2023-06-10T03:41:05;14.40;99.90
25825;DHT22;13658;44.534;18.694;2023-06-10T03:43:31;14.50;99.90
25825;DHT22;13658;44.534;18.694;2023-06-10T03:45:57;14.60;99.90
25825;DHT22;13658;44.534;18.694;2023-06-10T03:48:23;14.60;99.90
25825;DHT22;13658;44.534;18.694;2023-06-10T03:50:52;14.70;99.90
25825;DHT22;13658;44.534;18.694;2023-06-10T03:53:20;14.90;99.90
25825;DHT22;13658;44.534;18.694;2023-06-10T03:55:46;15.00;99.90
25825;DHT22;13658;44.534;18.694;2023-06-10T03:58:14;15.00;99.90
25825;DHT22;13658;44.534;18.694;2023-06-10T04:00:43;15.10;99.90
25825;DHT22;13658;44.534;18.694;2023-06-10T04:03:13;15.10;99.90
25825;DHT22;13658;44.534;18.694;2023-06-10T04:05:44;15.10;99.90
25825;DHT22;13658;44.534;18.694;2023-06-10T04:08:10;15.20;99.90
25825;DHT22;13658;44.534;18.694;2023-06-10T04:10:36;15.20;99.90
25825;DHT22;13658;44.534;18.694;2023-06-10T04:13:02;15.30;99.90
25825;DHT22;13658;44.534;18.694;2023-06-10T04:15:33;15.40;99.90
25825;DHT22;13658;44.534;18.694;2023-06-10T04:18:04;15.50;99.90
25825;DHT22;13658;44.534;18.694;2023-06-10T04:20:30;15.60;99.90
25825;DHT22;13658;44.534;18.694;2023-06-10T04:22:56;15.60;99.90
25825;DHT22;13658;44.534;18.694;2023-06-10T04:25:23;15.80;99.90
25825;DHT22;13658;44.534;18.694;2023-06-10T04:27:50;16.00;99.90
25825;DHT22;13658;44.534;18.694;2023-06-10T04:30:16;16.20;99.90
25825;DHT22;13658;44.534;18.694;2023-06-10T04:32:43;16.40;99.90
25825;DHT22;13658;44.534;18.694;2023-06-10T04:35:15;16.50;99.90
25825;DHT22;13658;44.534;18.694;2023-06-10T04:37:42;16.80;99.90
25825;DHT22;13658;44.534;18.694;2023-06-10T04:40:10;17.10;99.90
25825;DHT22;13658;44.534;18.694;2023-06-10T04:42:36;17.30;99.90
25825;DHT22;13658;44.534;18.694;2023-06-10T04:45:03;17.40;99.90
25825;DHT22;13658;44.534;18.694;2023-06-10T04:47:30;17.50;99.90
25825;DHT22;13658;44.534;18.694;2023-06-10T04:50:00;17.70;99.90
25825;DHT22;13658;44.534;18.694;2023-06-10T04:52:28;17.80;99.90
25825;DHT22;13658;44.534;18.694;2023-06-10T04:54:55;18.00;99.90
25825;DHT22;13658;44.534;18.694;2023-06-10T04:57:21;18.30;99.90
25825;DHT22;13658;44.534;18.694;2023-06-10T04:59:47;18.30;99.90
25825;DHT22;13658;44.534;18.694;2023-06-10T05:02:13;18.50;99.90
25825;DHT22;13658;44.534;18.694;2023-06-10T05:04:40;18.70;99.90
25825;DHT22;13658;44.534;18.694;2023-06-10T05:07:05;18.80;99.90
25825;DHT22;13658;44.534;18.694;2023-06-10T05:09:31;18.80;99.90
25825;DHT22;13658;44.534;18.694;2023-06-10T05:11:58;19.00;99.90
25825;DHT22;13658;44.534;18.694;2023-06-10T05:14:24;18.90;99.90
25825;DHT22;13658;44.534;18.694;2023-06-10T05:16:50;18.90;99.90
25825;DHT22;13658;44.534;18.694;2023-06-10T05:19:17;19.10;99.90
25825;DHT22;13658;44.534;18.694;2023-06-10T05:21:44;19.20;99.90
25825;DHT22;13658;44.534;18.694;2023-06-10T05:24:10;19.60;99.90
25825;DHT22;13658;44.534;18.694;2023-06-10T05:26:36;19.90;99.90
25825;DHT22;13658;44.534;18.694;2023-06-10T05:29:07;20.20;99.90
25825;DHT22;13658;44.534;18.694;2023-06-10T05:31:34;20.40;99.90
25825;DHT22;13658;44.534;18.694;2023-06-10T05:34:00;20.90;99.90
25825;DHT22;13658;44.534;18.694;2023-06-10T05:36:27;21.10;99.90
25825;DHT22;13658;44.534;18.694;2023-06-10T05:38:53;21.20;99.90
25825;DHT22;13658;44.534;18.694;2023-06-10T05:41:19;21.70;99.90
25825;DHT22;13658;44.534;18.694;2023-06-10T05:43:46;21.80;99.90
25825;DHT22;13658;44.534;18.694;2023-06-10T05:46:12;22.00;99.90
25825;DHT22;13658;44.534;18.694;2023-06-10T05:48:38;22.30;99.90
25825;DHT22;13658;44.534;18.694;2023-06-10T05:51:04;22.00;99.90
25825;DHT22;13658;44.534;18.694;2023-06-10T05:53:31;22.40;99.90
25825;DHT22;13658;44.534;18.694;2023-06-10T05:55:57;22.60;99.90
25825;DHT22;13658;44.534;18.694;2023-06-10T05:58:23;22.90;99.90
25825;DHT22;13658;44.534;18.694;2023-06-10T06:00:51;23.10;99.90
25825;DHT22;13658;44.534;18.694;2023-06-10T06:03:17;23.30;99.90
25825;DHT22;13658;44.534;18.694;2023-06-10T06:05:44;23.60;99.90
25825;DHT22;13658;44.534;18.694;2023-06-10T06:08:11;23.80;99.90
25825;DHT22;13658;44.534;18.694;2023-06-10T06:10:39;24.00;99.90
25825;DHT22;13658;44.534;18.694;2023-06-10T06:13:05;24.10;99.90
25825;DHT22;13658;44.534;18.694;2023-06-10T06:15:31;24.10;99.90
25825;DHT22;13658;44.534;18.694;2023-06-10T06:17:57;24.20;99.90
25825;DHT22;13658;44.534;18.694;2023-06-10T06:20:23;24.40;99.90
25825;DHT22;13658;44.534;18.694;2023-06-10T06:22:49;24.70;99.90
25825;DHT22;13658;44.534;18.694;2023-06-10T06:25:15;24.60;99.90
25825;DHT22;13658;44.534;18.694;2023-06-10T06:27:41;25.10;99.90
25825;DHT22;13658;44.534;18.694;2023-06-10T06:30:07;25.30;99.90
25825;DHT22;13658;44.534;18.694;2023-06-10T06:32:33;25.60;99.90
25825;DHT22;13658;44.534;18.694;2023-06-10T06:35:00;25.80;99.90
25825;DHT22;13658;44.534;18.694;2023-06-10T06:37:26;25.70;99.90
25825;DHT22;13658;44.534;18.694;2023-06-10T06:40:04;25.80;99.90
25825;DHT22;13658;44.534;18.694;2023-06-10T06:42:30;25.40;99.90
25825;DHT22;13658;44.534;18.694;2023-06-10T06:45:08;25.20;99.90
25825;DHT22;13658;44.534;18.694;2023-06-10T06:47:34;24.70;99.90
25825;DHT22;13658;44.534;18.694;2023-06-10T06:50:00;24.20;99.90
25825;DHT22;13658;44.534;18.694;2023-06-10T06:52:26;24.40;99.90
25825;DHT22;13658;44.534;18.694;2023-06-10T06:54:52;25.00;99.90
25825;DHT22;13658;44.534;18.694;2023-06-10T06:57:18;25.30;99.90
25825;DHT22;13658;44.534;18.694;2023-06-10T06:59:44;25.90;99.90
25825;DHT22;13658;44.534;18.694;2023-06-10T07:02:10;25.90;99.90
25825;DHT22;13658;44.534;18.694;2023-06-10T07:04:36;26.30;99.90
25825;DHT22;13658;44.534;18.694;2023-06-10T07:07:04;26.50;99.90
25825;DHT22;13658;44.534;18.694;2023-06-10T07:09:30;26.30;99.90
25825;DHT22;13658;44.534;18.694;2023-06-10T07:11:56;26.30;99.90
25825;DHT22;13658;44.534;18.694;2023-06-10T07:14:22;25.90;99.90
25825;DHT22;13658;44.534;18.694;2023-06-10T07:16:48;25.60;99.90
25825;DHT22;13658;44.534;18.694;2023-06-10T07:19:15;25.30;99.90
25825;DHT22;13658;44.534;18.694;2023-06-10T07:21:41;25.10;99.90
25825;DHT22;13658;44.534;18.694;2023-06-10T07:24:07;25.40;99.90
25825;DHT22;13658;44.534;18.694;2023-06-10T07:26:33;25.90;99.90
25825;DHT22;13658;44.534;18.694;2023-06-10T07:28:59;26.60;99.90
25825;DHT22;13658;44.534;18.694;2023-06-10T07:31:25;27.70;99.90
25825;DHT22;13658;44.534;18.694;2023-06-10T07:34:00;28.60;99.90
25825;DHT22;13658;44.534;18.694;2023-06-10T07:36:26;29.40;99.90
25825;DHT22;13658;44.534;18.694;2023-06-10T07:38:54;29.20;99.90
25825;DHT22;13658;44.534;18.694;2023-06-10T07:41:23;29.60;99.90
25825;DHT22;13658;44.534;18.694;2023-06-10T07:43:52;29.90;99.90
25825;DHT22;13658;44.534;18.694;2023-06-10T07:46:23;30.70;99.90
25825;DHT22;13658;44.534;18.694;2023-06-10T07:48:50;30.80;99.90
25825;DHT22;13658;44.534;18.694;2023-06-10T07:51:19;31.20;99.90
25825;DHT22;13658;44.534;18.694;2023-06-10T07:53:45;31.60;99.90
25825;DHT22;13658;44.534;18.694;2023-06-10T07:56:11;31.30;99.90
25825;DHT22;13658;44.534;18.694;2023-06-10T07:58:37;31.50;99.90
25825;DHT22;13658;44.534;18.694;2023-06-10T08:01:03;31.70;99.90
25825;DHT22;13658;44.534;18.694;2023-06-10T08:03:29;31.60;99.90
25825;DHT22;13658;44.534;18.694;2023-06-10T08:05:55;32.80;99.90
25825;DHT22;13658;44.534;18.694;2023-06-10T08:08:21;32.90;99.90
25825;DHT22;13658;44.534;18.694;2023-06-10T08:10:47;32.50;99.90
25825;DHT22;13658;44.534;18.694;2023-06-10T08:13:15;32.50;99.90
25825;DHT22;13658;44.534;18.694;2023-06-10T08:15:40;32.30;99.90
25825;DHT22;13658;44.534;18.694;2023-06-10T08:18:06;32.50;99.90
25825;DHT22;13658;44.534;18.694;2023-06-10T08:20:32;32.90;99.90
25825;DHT22;13658;44.534;18.694;2023-06-10T08:22:58;33.00;99.90
25825;DHT22;13658;44.534;18.694;2023-06-10T08:25:24;33.50;99.90
25825;DHT22;13658;44.534;18.694;2023-06-10T08:27:50;33.10;99.90
25825;DHT22;13658;44.534;18.694;2023-06-10T08:30:18;34.10;99.90
25825;DHT22;13658;44.534;18.694;2023-06-10T08:32:44;34.00;99.90
25825;DHT22;13658;44.534;18.694;2023-06-10T08:35:10;33.70;99.90
25825;DHT22;13658;44.534;18.694;2023-06-10T08:37:36;33.90;99.90
25825;DHT22;13658;44.534;18.694;2023-06-10T08:40:02;34.70;99.90
25825;DHT22;13658;44.534;18.694;2023-06-10T08:42:39;34.80;99.90
25825;DHT22;13658;44.534;18.694;2023-06-10T08:45:12;34.80;99.90
25825;DHT22;13658;44.534;18.694;2023-06-10T08:47:44;35.40;99.90
25825;DHT22;13658;44.534;18.694;2023-06-10T08:50:12;35.20;99.90
25825;DHT22;13658;44.534;18.694;2023-06-10T08:52:42;34.80;99.90
25825;DHT22;13658;44.534;18.694;2023-06-10T08:55:33;34.50;99.90
25825;DHT22;13658;44.534;18.694;2023-06-10T08:58:00;34.30;99.90
25825;DHT22;13658;44.534;18.694;2023-06-10T09:00:28;33.50;99.90
25825;DHT22;13658;44.534;18.694;2023-06-10T09:02:59;33.90;99.90
25825;DHT22;13658;44.534;18.694;2023-06-10T09:05:27;34.30;99.90
25825;DHT22;13658;44.534;18.694;2023-06-10T09:07:53;34.20;99.90
25825;DHT22;13658;44.534;18.694;2023-06-10T09:10:19;33.80;99.90
25825;DHT22;13658;44.534;18.694;2023-06-10T09:12:45;33.30;99.90
25825;DHT22;13658;44.534;18.694;2023-06-10T09:15:11;33.00;99.90
25825;DHT22;13658;44.534;18.694;2023-06-10T09:17:38;33.30;99.90
25825;DHT22;13658;44.534;18.694;2023-06-10T09:20:07;33.20;99.90
25825;DHT22;13658;44.534;18.694;2023-06-10T09:22:34;32.90;99.90
25825;DHT22;13658;44.534;18.694;2023-06-10T09:25:08;34.00;99.90
25825;DHT22;13658;44.534;18.694;2023-06-10T09:27:45;34.50;99.90
25825;DHT22;13658;44.534;18.694;2023-06-10T09:32:56;34.60;99.90
25825;DHT22;13658;44.534;18.694;2023-06-10T09:35:23;33.20;99.90
25825;DHT22;13658;44.534;18.694;2023-06-10T09:37:53;32.50;99.90
25825;DHT22;13658;44.534;18.694;2023-06-10T09:40:19;31.70;99.90
25825;DHT22;13658;44.534;18.694;2023-06-10T09:42:45;30.70;99.90
25825;DHT22;13658;44.534;18.694;2023-06-10T09:45:15;30.80;99.90
25825;DHT22;13658;44.534;18.694;2023-06-10T09:47:41;29.80;99.90
25825;DHT22;13658;44.534;18.694;2023-06-10T09:50:07;28.80;99.90
25825;DHT22;13658;44.534;18.694;2023-06-10T09:52:33;28.00;99.90
25825;DHT22;13658;44.534;18.694;2023-06-10T09:55:03;27.80;99.90
25825;DHT22;13658;44.534;18.694;2023-06-10T09:57:32;27.20;99.90
25825;DHT22;13658;44.534;18.694;2023-06-10T10:00:09;27.10;99.90
25825;DHT22;13658;44.534;18.694;2023-06-10T10:02:49;27.70;99.90
25825;DHT22;13658;44.534;18.694;2023-06-10T10:05:16;28.90;99.90
25825;DHT22;13658;44.534;18.694;2023-06-10T10:07:43;29.40;99.90
25825;DHT22;13658;44.534;18.694;2023-06-10T10:10:11;30.40;99.90
25825;DHT22;13658;44.534;18.694;2023-06-10T10:12:40;30.90;99.90
25825;DHT22;13658;44.534;18.694;2023-06-10T10:15:11;31.30;99.90
25825;DHT22;13658;44.534;18.694;2023-06-10T10:17:44;31.70;99.90
25825;DHT22;13658;44.534;18.694;2023-06-10T10:20:14;31.60;99.90
25825;DHT22;13658;44.534;18.694;2023-06-10T10:22:44;31.60;99.90
25825;DHT22;13658;44.534;18.694;2023-06-10T10:25:16;32.10;99.90
25825;DHT22;13658;44.534;18.694;2023-06-10T10:28:13;33.20;99.90
25825;DHT22;13658;44.534;18.694;2023-06-10T10:30:44;33.60;99.90
25825;DHT22;13658;44.534;18.694;2023-06-10T10:33:19;32.00;99.90
25825;DHT22;13658;44.534;18.694;2023-06-10T10:35:46;31.80;99.90
25825;DHT22;13658;44.534;18.694;2023-06-10T10:38:12;30.80;99.90
25825;DHT22;13658;44.534;18.694;2023-06-10T10:40:39;29.90;99.90
25825;DHT22;13658;44.534;18.694;2023-06-10T10:43:06;29.10;99.90
25825;DHT22;13658;44.534;18.694;2023-06-10T10:45:34;28.90;99.90
25825;DHT22;13658;44.534;18.694;2023-06-10T10:48:08;28.80;99.90
25825;DHT22;13658;44.534;18.694;2023-06-10T10:50:38;28.60;99.90
25825;DHT22;13658;44.534;18.694;2023-06-10T10:53:05;28.30;99.90
25825;DHT22;13658;44.534;18.694;2023-06-10T10:55:32;27.60;99.90
25825;DHT22;13658;44.534;18.694;2023-06-10T10:58:06;27.20;99.90
25825;DHT22;13658;44.534;18.694;2023-06-10T11:00:43;26.70;99.90
25825;DHT22;13658;44.534;18.694;2023-06-10T11:03:14;26.20;99.90
25825;DHT22;13658;44.534;18.694;2023-06-10T11:05:48;25.70;99.90
25825;DHT22;13658;44.534;18.694;2023-06-10T11:08:45;24.30;99.90
25825;DHT22;13658;44.534;18.694;2023-06-10T11:11:18;21.40;99.90
25825;DHT22;13658;44.534;18.694;2023-06-10T11:13:59;19.00;99.90
25825;DHT22;13658;44.534;18.694;2023-06-10T11:16:27;18.30;99.90
25825;DHT22;13658;44.534;18.694;2023-06-10T11:18:54;18.00;99.90
25825;DHT22;13658;44.534;18.694;2023-06-10T11:21:22;18.10;99.90
25825;DHT22;13658;44.534;18.694;2023-06-10T11:23:50;18.20;99.90
25825;DHT22;13658;44.534;18.694;2023-06-10T11:31:25;18.50;99.90
25825;DHT22;13658;44.534;18.694;2023-06-10T11:34:02;18.50;99.90
25825;DHT22;13658;44.534;18.694;2023-06-10T11:36:33;18.40;99.90
25825;DHT22;13658;44.534;18.694;2023-06-10T11:39:04;18.40;99.90
25825;DHT22;13658;44.534;18.694;2023-06-10T11:41:35;18.60;99.90
25825;DHT22;13658;44.534;18.694;2023-06-10T11:44:08;18.60;99.90
25825;DHT22;13658;44.534;18.694;2023-06-10T11:46:35;18.80;99.90
25825;DHT22;13658;44.534;18.694;2023-06-10T11:49:02;19.00;99.90
25825;DHT22;13658;44.534;18.694;2023-06-10T11:51:31;19.10;99.90
25825;DHT22;13658;44.534;18.694;2023-06-10T11:53:58;19.30;99.90
25825;DHT22;13658;44.534;18.694;2023-06-10T11:56:28;19.40;99.90
25825;DHT22;13658;44.534;18.694;2023-06-10T11:58:58;19.50;99.90
25825;DHT22;13658;44.534;18.694;2023-06-10T12:01:26;19.80;99.90
25825;DHT22;13658;44.534;18.694;2023-06-10T12:04:05;20.00;99.90
25825;DHT22;13658;44.534;18.694;2023-06-10T12:06:45;20.30;99.90
25825;DHT22;13658;44.534;18.694;2023-06-10T12:09:19;20.60;99.90
25825;DHT22;13658;44.534;18.694;2023-06-10T12:11:52;20.90;99.90
25825;DHT22;13658;44.534;18.694;2023-06-10T12:14:56;20.90;99.90
25825;DHT22;13658;44.534;18.694;2023-06-10T12:19:58;21.60;99.90
25825;DHT22;13658;44.534;18.694;2023-06-10T12:22:25;21.70;99.90
25825;DHT22;13658;44.534;18.694;2023-06-10T12:25:03;22.00;99.90
25825;DHT22;13658;44.534;18.694;2023-06-10T12:27:30;22.30;99.90
25825;DHT22;13658;44.534;18.694;2023-06-10T12:30:01;22.50;99.90
25825;DHT22;13658;44.534;18.694;2023-06-10T12:32:45;22.70;99.90
25825;DHT22;13658;44.534;18.694;2023-06-10T12:35:13;22.90;99.90
25825;DHT22;13658;44.534;18.694;2023-06-10T12:37:41;23.10;99.90
25825;DHT22;13658;44.534;18.694;2023-06-10T12:40:07;23.10;99.90
25825;DHT22;13658;44.534;18.694;2023-06-10T12:42:36;23.20;99.90
25825;DHT22;13658;44.534;18.694;2023-06-10T12:45:04;23.40;99.90
25825;DHT22;13658;44.534;18.694;2023-06-10T12:47:34;23.50;99.90
25825;DHT22;13658;44.534;18.694;2023-06-10T12:50:07;23.60;99.90
25825;DHT22;13658;44.534;18.694;2023-06-10T12:52:34;23.50;99.90
25825;DHT22;13658;44.534;18.694;2023-06-10T12:55:00;23.50;99.90
25825;DHT22;13658;44.534;18.694;2023-06-10T12:57:26;23.60;99.90
25825;DHT22;13658;44.534;18.694;2023-06-10T12:59:52;23.70;99.90
25825;DHT22;13658;44.534;18.694;2023-06-10T13:02:19;23.80;99.90
25825;DHT22;13658;44.534;18.694;2023-06-10T13:04:46;23.90;99.90
25825;DHT22;13658;44.534;18.694;2023-06-10T13:07:12;23.80;99.90
25825;DHT22;13658;44.534;18.694;2023-06-10T13:09:39;23.80;99.90
25825;DHT22;13658;44.534;18.694;2023-06-10T13:12:05;23.80;99.90
25825;DHT22;13658;44.534;18.694;2023-06-10T13:14:31;23.80;99.90
25825;DHT22;13658;44.534;18.694;2023-06-10T13:16:57;23.80;99.90
25825;DHT22;13658;44.534;18.694;2023-06-10T13:19:23;23.80;99.90
25825;DHT22;13658;44.534;18.694;2023-06-10T13:21:49;23.70;99.90
25825;DHT22;13658;44.534;18.694;2023-06-10T13:24:15;23.80;99.90
25825;DHT22;13658;44.534;18.694;2023-06-10T13:26:41;23.70;99.90
25825;DHT22;13658;44.534;18.694;2023-06-10T13:29:07;23.70;99.90
25825;DHT22;13658;44.534;18.694;2023-06-10T13:31:39;23.80;99.90
25825;DHT22;13658;44.534;18.694;2023-06-10T13:34:05;23.80;99.90
25825;DHT22;13658;44.534;18.694;2023-06-10T13:36:32;23.80;99.90
25825;DHT22;13658;44.534;18.694;2023-06-10T13:38:58;23.80;99.90
25825;DHT22;13658;44.534;18.694;2023-06-10T13:41:24;24.00;99.90
25825;DHT22;13658;44.534;18.694;2023-06-10T13:43:50;24.00;99.90
25825;DHT22;13658;44.534;18.694;2023-06-10T13:46:16;24.20;99.90
25825;DHT22;13658;44.534;18.694;2023-06-10T13:48:42;24.20;99.90
25825;DHT22;13658;44.534;18.694;2023-06-10T13:51:08;24.30;99.90
25825;DHT22;13658;44.534;18.694;2023-06-10T13:53:36;24.30;99.90
25825;DHT22;13658;44.534;18.694;2023-06-10T13:56:02;24.40;99.90
25825;DHT22;13658;44.534;18.694;2023-06-10T13:58:28;24.50;99.90
25825;DHT22;13658;44.534;18.694;2023-06-10T14:00:54;24.70;99.90
25825;DHT22;13658;44.534;18.694;2023-06-10T14:03:20;24.80;99.90
25825;DHT22;13658;44.534;18.694;2023-06-10T14:05:46;24.80;99.90
25825;DHT22;13658;44.534;18.694;2023-06-10T14:08:12;25.00;99.90
25825;DHT22;13658;44.534;18.694;2023-06-10T14:10:39;25.20;99.90
25825;DHT22;13658;44.534;18.694;2023-06-10T14:13:06;25.30;99.90
25825;DHT22;13658;44.534;18.694;2023-06-10T14:15:32;25.30;99.90
25825;DHT22;13658;44.534;18.694;2023-06-10T14:17:58;25.60;99.90
25825;DHT22;13658;44.534;18.694;2023-06-10T14:20:24;25.70;99.90
25825;DHT22;13658;44.534;18.694;2023-06-10T14:22:52;25.70;99.90
25825;DHT22;13658;44.534;18.694;2023-06-10T14:25:18;25.90;99.90
25825;DHT22;13658;44.534;18.694;2023-06-10T14:27:44;25.80;99.90
25825;DHT22;13658;44.534;18.694;2023-06-10T14:30:13;25.70;99.90
25825;DHT22;13658;44.534;18.694;2023-06-10T14:32:39;25.70;99.90
25825;DHT22;13658;44.534;18.694;2023-06-10T14:35:05;25.90;99.90
25825;DHT22;13658;44.534;18.694;2023-06-10T14:37:32;25.90;99.90
25825;DHT22;13658;44.534;18.694;2023-06-10T14:39:58;26.10;99.90
25825;DHT22;13658;44.534;18.694;2023-06-10T14:42:24;26.00;99.90
25825;DHT22;13658;44.534;18.694;2023-06-10T14:44:50;26.10;99.90
25825;DHT22;13658;44.534;18.694;2023-06-10T14:47:16;26.00;99.90
25825;DHT22;13658;44.534;18.694;2023-06-10T14:49:42;25.90;99.90
25825;DHT22;13658;44.534;18.694;2023-06-10T14:52:09;25.70;99.90
25825;DHT22;13658;44.534;18.694;2023-06-10T14:54:36;25.70;99.90
25825;DHT22;13658;44.534;18.694;2023-06-10T14:57:02;25.60;99.90
25825;DHT22;13658;44.534;18.694;2023-06-10T14:59:28;25.60;99.90
25825;DHT22;13658;44.534;18.694;2023-06-10T15:01:54;25.60;99.90
25825;DHT22;13658;44.534;18.694;2023-06-10T15:04:20;25.60;99.90
25825;DHT22;13658;44.534;18.694;2023-06-10T15:06:46;25.60;99.90
25825;DHT22;13658;44.534;18.694;2023-06-10T15:09:14;25.50;99.90
25825;DHT22;13658;44.534;18.694;2023-06-10T15:11:41;25.60;99.90
25825;DHT22;13658;44.534;18.694;2023-06-10T15:14:07;25.60;99.90
25825;DHT22;13658;44.534;18.694;2023-06-10T15:16:33;25.70;99.90
25825;DHT22;13658;44.534;18.694;2023-06-10T15:18:59;25.80;99.90
25825;DHT22;13658;44.534;18.694;2023-06-10T15:21:25;25.90;99.90
25825;DHT22;13658;44.534;18.694;2023-06-10T15:23:51;25.90;99.90
25825;DHT22;13658;44.534;18.694;2023-06-10T15:26:17;26.00;99.90
25825;DHT22;13658;44.534;18.694;2023-06-10T15:28:43;26.00;99.90
25825;DHT22;13658;44.534;18.694;2023-06-10T15:31:09;26.00;99.90